Time;durP1;ratioP1;P1;durP2;ratioP2;P2;SDS_P1;SDS_P2;PMS_P1;PMS_P2;Temp;Humidity;BMP_temperature;BMP_pressure;BME280_temperature;BME280_humidity;BME280_pressure;Samples;Min_cycle;Max_cycle;Signal;HPM_P1;HPM_P2
2022/07/01 00:01:33;;;;;;;;;;;19.90;99.90;;;;;;6217978;23;19912;-89
2022/07/01 00:04:00;;;;;;;;;;;19.80;99.90;;;;;;6217529;23;19911;-89
2022/07/01 00:06:27;;;;;;;;;;;19.80;99.90;;;;;;6216303;23;19915;-88
2022/07/01 00:08:54;;;;;;;;;;;19.80;99.90;;;;;;6217421;23;20210;-87
2022/07/01 00:11:22;;;;;;;;;;;19.70;99.90;;;;;;6217445;23;19912;-89
2022/07/01 00:13:49;;;;;;;;;;;19.70;99.90;;;;;;6216818;23;19912;-89
2022/07/01 00:16:16;;;;;;;;;;;19.70;99.90;;;;;;6217042;23;19912;-88
2022/07/01 00:18:43;;;;;;;;;;;19.70;90.00;;;;;;6216524;23;19958;-88
2022/07/01 00:21:10;;;;;;;;;;;19.60;48.60;;;;;;6216470;23;19912;-88
2022/07/01 00:23:37;;;;;;;;;;;19.60;8.30;;;;;;6216633;23;19915;-89
2022/07/01 00:26:04;;;;;;;;;;;19.60;1.00;;;;;;6216124;23;19912;-87
2022/07/01 00:28:32;;;;;;;;;;;19.60;1.00;;;;;;6216276;23;19912;-89
2022/07/01 00:30:59;;;;;;;;;;;19.50;1.00;;;;;;6217176;23;19911;-88
2022/07/01 00:33:26;;;;;;;;;;;19.40;1.00;;;;;;6215617;23;19916;-88
2022/07/01 00:35:54;;;;;;;;;;;19.40;1.00;;;;;;6216086;23;19915;-88
2022/07/01 00:38:21;;;;;;;;;;;19.30;1.00;;;;;;6216357;23;20316;-88
2022/07/01 00:40:52;;;;;;;;;;;19.30;99.90;;;;;;6215867;23;20222;-87
2022/07/01 00:43:19;;;;;;;;;;;19.20;99.90;;;;;;6217757;23;19918;-88
2022/07/01 00:45:48;;;;;;;;;;;19.10;26.80;;;;;;6215745;23;19912;-89
2022/07/01 00:48:16;;;;;;;;;;;19.10;1.00;;;;;;6216143;23;20307;-89
2022/07/01 00:50:43;;;;;;;;;;;19.00;12.90;;;;;;6217387;23;19911;-88
2022/07/01 00:53:10;;;;;;;;;;;19.00;58.40;;;;;;6217707;23;19919;-88
2022/07/01 00:55:37;;;;;;;;;;;18.90;99.90;;;;;;6216707;23;19916;-89
2022/07/01 00:58:04;;;;;;;;;;;18.90;99.90;;;;;;6217152;23;19935;-88
2022/07/01 01:00:31;;;;;;;;;;;18.90;99.90;;;;;;6215845;23;19919;-88
2022/07/01 01:02:59;;;;;;;;;;;18.90;99.90;;;;;;6217636;23;19931;-89
2022/07/01 01:05:26;;;;;;;;;;;18.90;99.90;;;;;;6218421;23;20319;-88
2022/07/01 01:07:53;;;;;;;;;;;18.90;99.90;;;;;;6217109;23;19916;-89
2022/07/01 01:10:20;;;;;;;;;;;18.90;99.90;;;;;;6217284;23;19912;-89
2022/07/01 01:12:47;;;;;;;;;;;18.90;99.90;;;;;;6216793;23;20385;-88
2022/07/01 01:15:18;;;;;;;;;;;18.90;99.90;;;;;;6216778;23;19912;-89
2022/07/01 01:17:46;;;;;;;;;;;18.90;1.00;;;;;;6218042;23;19922;-88
2022/07/01 01:20:15;;;;;;;;;;;18.90;1.00;;;;;;6217452;23;20247;-89
2022/07/01 01:22:44;;;;;;;;;;;19.00;1.00;;;;;;6216452;23;19954;-90
2022/07/01 01:25:11;;;;;;;;;;;19.00;1.00;;;;;;6217747;23;19912;-89
2022/07/01 01:27:38;;;;;;;;;;;19.00;1.00;;;;;;6215411;23;19922;-88
2022/07/01 01:30:05;;;;;;;;;;;19.00;1.00;;;;;;6215687;23;19912;-87
2022/07/01 01:32:32;;;;;;;;;;;18.90;1.00;;;;;;6215521;23;19912;-89
2022/07/01 01:34:58;;;;;;;;;;;18.90;1.00;;;;;;6217339;23;19918;-88
2022/07/01 01:37:27;;;;;;;;;;;18.90;1.00;;;;;;6218141;23;20251;-88
2022/07/01 01:39:55;;;;;;;;;;;18.90;1.00;;;;;;6218559;23;19912;-90
2022/07/01 01:42:22;;;;;;;;;;;18.90;1.00;;;;;;6218373;23;20362;-88
2022/07/01 01:44:49;;;;;;;;;;;18.90;1.00;;;;;;6218812;23;19911;-87
2022/07/01 01:47:16;;;;;;;;;;;18.90;1.00;;;;;;6218821;23;20270;-89
2022/07/01 01:49:43;;;;;;;;;;;18.90;1.00;;;;;;6218070;23;19912;-89
2022/07/01 01:52:09;;;;;;;;;;;18.90;1.00;;;;;;6217624;23;20242;-88
2022/07/01 01:54:36;;;;;;;;;;;18.90;1.00;;;;;;6218613;23;19922;-89
2022/07/01 01:57:05;;;;;;;;;;;19.00;1.00;;;;;;6218392;23;19915;-88
2022/07/01 01:59:31;;;;;;;;;;;19.00;1.00;;;;;;6217495;23;19916;-89
2022/07/01 02:01:58;;;;;;;;;;;18.90;1.00;;;;;;6217991;23;19920;-88
2022/07/01 02:04:25;;;;;;;;;;;18.90;1.00;;;;;;6217458;23;19919;-88
2022/07/01 02:06:52;;;;;;;;;;;19.00;1.00;;;;;;6216935;23;19912;-88
2022/07/01 02:09:19;;;;;;;;;;;19.00;1.00;;;;;;6217510;23;20338;-88
2022/07/01 02:11:46;;;;;;;;;;;19.00;1.00;;;;;;6217395;23;20315;-88
2022/07/01 02:14:14;;;;;;;;;;;19.00;1.00;;;;;;6217301;23;19912;-88
2022/07/01 02:16:40;;;;;;;;;;;18.90;1.00;;;;;;6217791;23;19958;-89
2022/07/01 02:19:07;;;;;;;;;;;18.90;1.00;;;;;;6217835;23;19911;-90
2022/07/01 02:21:34;;;;;;;;;;;18.90;1.00;;;;;;6217478;23;19958;-89
2022/07/01 02:24:01;;;;;;;;;;;18.90;1.00;;;;;;6217410;23;19911;-88
2022/07/01 02:26:28;;;;;;;;;;;18.90;1.00;;;;;;6217069;23;19916;-89
2022/07/01 02:28:54;;;;;;;;;;;18.80;1.00;;;;;;6217304;23;19915;-90
2022/07/01 02:31:23;;;;;;;;;;;18.80;1.00;;;;;;6217498;23;20207;-89
2022/07/01 02:33:49;;;;;;;;;;;18.80;1.00;;;;;;6217194;23;19915;-88
2022/07/01 02:36:16;;;;;;;;;;;18.80;1.00;;;;;;6217363;23;19967;-89
2022/07/01 02:38:43;;;;;;;;;;;18.80;1.00;;;;;;6217269;23;19912;-89
2022/07/01 02:41:10;;;;;;;;;;;18.80;1.00;;;;;;6217042;23;19911;-89
2022/07/01 02:43:37;;;;;;;;;;;18.80;1.00;;;;;;6217137;23;19916;-88
2022/07/01 02:46:06;;;;;;;;;;;18.70;1.00;;;;;;6222057;23;19918;-92
2022/07/01 02:48:35;;;;;;;;;;;18.70;1.00;;;;;;6219064;23;19916;-88
2022/07/01 02:51:02;;;;;;;;;;;18.70;1.00;;;;;;6226437;23;19934;-88
2022/07/01 02:53:29;;;;;;;;;;;18.70;1.00;;;;;;6227163;23;20315;-89
2022/07/01 02:55:56;;;;;;;;;;;18.70;1.00;;;;;;6224421;23;19900;-88
2022/07/01 02:58:23;;;;;;;;;;;18.70;1.00;;;;;;6226213;23;20232;-89
2022/07/01 03:00:52;;;;;;;;;;;18.70;1.00;;;;;;6223237;23;19991;-91
2022/07/01 03:03:19;;;;;;;;;;;18.70;1.00;;;;;;6224307;23;19918;-90
2022/07/01 03:05:48;;;;;;;;;;;18.80;1.00;;;;;;6226130;23;19987;-90
2022/07/01 03:08:18;;;;;;;;;;;18.90;1.00;;;;;;6228655;23;19911;-92
2022/07/01 03:10:45;;;;;;;;;;;19.00;1.00;;;;;;6220387;23;19943;-89
2022/07/01 03:13:12;;;;;;;;;;;19.00;1.00;;;;;;6224734;23;19939;-90
2022/07/01 03:15:39;;;;;;;;;;;19.10;1.00;;;;;;6228414;23;19916;-90
2022/07/01 03:18:06;;;;;;;;;;;19.10;18.40;;;;;;6223689;23;19911;-90
2022/07/01 03:20:44;;;;;;;;;;;19.20;62.80;;;;;;6223152;23;19918;-92
2022/07/01 03:23:12;;;;;;;;;;;19.30;99.90;;;;;;6227579;23;19912;-90
2022/07/01 03:25:39;;;;;;;;;;;19.40;99.90;;;;;;6224843;23;19923;-87
2022/07/01 03:28:07;;;;;;;;;;;19.50;99.90;;;;;;6227957;22;19911;-93
2022/07/01 03:30:35;;;;;;;;;;;19.60;99.90;;;;;;6217718;23;19946;-91
2022/07/01 03:33:02;;;;;;;;;;;19.80;99.90;;;;;;6221147;23;19906;-90
2022/07/01 03:35:40;;;;;;;;;;;19.90;99.90;;;;;;6217715;23;19927;-90
2022/07/01 03:38:07;;;;;;;;;;;20.00;99.90;;;;;;6224374;23;20235;-89
2022/07/01 03:40:53;;;;;;;;;;;20.10;99.90;;;;;;6223080;23;19912;-90
2022/07/01 03:43:28;;;;;;;;;;;20.30;99.90;;;;;;6221328;23;19939;-90
2022/07/01 03:46:05;;;;;;;;;;;20.40;99.90;;;;;;6222735;23;19934;-87
2022/07/01 03:48:33;;;;;;;;;;;20.60;99.90;;;;;;6225377;23;20152;-90
2022/07/01 03:51:01;;;;;;;54.55;25.30;;;20.80;99.90;;;;;;6217938;23;20504;-89
2022/07/01 03:56:13;;;;;;;;;;;21.50;99.90;;;;;;6220500;23;19922;-89
2022/07/01 03:58:40;;;;;;;;;;;22.00;99.90;;;;;;6223310;23;19919;-91
2022/07/01 04:01:08;;;;;;;;;;;22.30;99.90;;;;;;6234462;22;19916;-91
2022/07/01 04:03:35;;;;;;;;;;;22.70;99.90;;;;;;6220087;23;20197;-90
2022/07/01 04:06:24;;;;;;;;;;;23.10;99.90;;;;;;6223001;23;19986;-87
2022/07/01 04:08:51;;;;;;;22.98;19.60;;;23.60;84.40;;;;;;6218999;23;20056;-91
2022/07/01 04:11:21;;;;;;;26.33;19.58;;;24.10;1.00;;;;;;6222694;23;20146;-90
2022/07/01 04:13:51;;;;;;;26.42;18.95;;;24.60;1.00;;;;;;6230594;22;20165;-91
2022/07/01 04:16:33;;;;;;;24.55;18.55;;;25.00;1.00;;;;;;6224853;23;20154;-92
2022/07/01 04:19:00;;;;;;;23.88;18.63;;;25.50;1.00;;;;;;6226759;23;20157;-89
2022/07/01 04:24:13;;;;;;;21.83;17.52;;;26.40;1.00;;;;;;6225015;23;20171;-91
2022/07/01 04:26:43;;;;;;;20.85;17.48;;;26.90;99.90;;;;;;6227554;23;20160;-88
2022/07/01 04:32:01;;;;;;;24.33;17.98;;;27.80;1.00;;;;;;6225840;23;20208;-87
2022/07/01 04:34:28;;;;;;;21.95;17.33;;;28.20;1.00;;;;;;6231739;23;20240;-90
2022/07/01 04:37:09;;;;;;;23.15;17.90;;;28.50;99.90;;;;;;6229712;22;20149;-92
2022/07/01 04:39:39;;;;;;;19.65;17.63;;;28.80;1.00;;;;;;6229323;23;20219;-90
2022/07/01 04:42:08;;;;;;;20.60;17.55;;;29.00;1.00;;;;;;6229430;23;20167;-89
2022/07/01 04:47:23;;;;;;;19.52;17.50;;;29.40;99.90;;;;;;6225966;23;20211;-93
2022/07/01 04:50:01;;;;;;;19.30;17.42;;;29.60;99.90;;;;;;6228685;23;20248;-92
2022/07/01 04:52:29;;;;;;;20.13;17.45;;;29.80;1.00;;;;;;6225944;23;20199;-92
2022/07/01 04:55:15;;;;;;;20.00;17.95;;;30.00;1.00;;;;;;6238470;23;20169;-89
2022/07/01 04:58:37;;;;;;;20.73;18.55;;;30.20;1.00;;;;;;6241599;23;20149;-92
2022/07/01 05:01:18;;;;;;;20.58;18.58;;;29.70;1.00;;;;;;6150730;23;20147;-91
2022/07/01 05:04:16;;;;;;;19.80;17.80;;;29.20;1.00;;;;;;6150006;23;20155;-93
2022/07/01 05:06:59;;;;;;;19.55;17.48;;;29.30;1.00;;;;;;6208687;22;20164;-91
2022/07/01 05:09:48;;;;;;;18.30;16.55;;;29.80;1.00;;;;;;6229373;23;20173;-92
2022/07/01 05:12:36;;;;;;;19.02;16.92;;;30.30;1.00;;;;;;6241582;23;20167;-92
2022/07/01 05:15:03;;;;;;;18.65;16.83;;;30.60;1.00;;;;;;6240415;23;20188;-89
2022/07/01 05:27:03;;;;;;;17.17;15.48;;;31.90;99.90;;;;;;6242704;23;20183;-91
2022/07/01 05:29:49;;;;;;;18.83;17.00;;;31.90;99.90;;;;;;6242896;22;20161;-94
2022/07/01 05:32:29;;;;;;;18.55;16.65;;;31.40;99.90;;;;;;6241030;22;20160;-91
2022/07/01 05:35:06;;;;;;;18.33;16.67;;;31.30;99.90;;;;;;6235216;23;20189;-90
2022/07/01 05:41:01;;;;;;;17.02;15.48;;;31.40;99.90;;;;;;6239700;22;20170;-92
2022/07/01 05:50:00;;;;;;;16.17;14.48;;;33.20;99.90;;;;;;6237295;22;20157;-91
2022/07/01 05:52:38;;;;;;;16.15;14.57;;;33.40;99.90;;;;;;6227612;23;20195;-92
2022/07/01 05:55:38;;;;;;;15.63;14.13;;;33.40;99.90;;;;;;6242137;23;20180;-95
2022/07/01 05:58:16;;;;;;;15.88;14.43;;;33.50;99.90;;;;;;6242534;22;20192;-93
2022/07/01 06:00:57;;;;;;;15.45;13.95;;;33.50;99.90;;;;;;6237539;22;20165;-93
2022/07/01 06:04:01;;;;;;;15.32;13.82;;;33.30;99.90;;;;;;6242065;22;20209;-92
2022/07/01 06:06:59;;;;;;;14.75;13.35;;;33.20;99.90;;;;;;6242591;23;20163;-91
2022/07/01 06:09:43;;;;;;;14.63;13.27;;;33.30;99.90;;;;;;6242092;23;20163;-93
2022/07/01 06:12:39;;;;;;;14.68;13.15;;;34.00;99.90;;;;;;6236252;23;20156;-92
2022/07/01 06:15:16;;;;;;;15.13;13.27;;;34.10;99.90;;;;;;6240459;22;20220;-95
2022/07/01 06:18:02;;;;;;;14.45;12.00;;;33.80;93.80;;;;;;6242294;22;20168;-92
2022/07/01 06:20:32;;;;;;;14.18;12.75;;;34.20;99.90;;;;;;6242440;22;20197;-92
2022/07/01 06:25:58;;;;;;;13.48;12.05;;;35.40;79.50;;;;;;6153108;23;20199;-94
2022/07/01 06:28:48;;;;;;;15.45;12.00;;;35.30;64.00;;;;;;6215235;22;20148;-92
2022/07/01 06:31:23;;;;;;;16.02;12.30;;;35.20;61.40;;;;;;6244298;22;20144;-92
2022/07/01 06:34:14;;;;;;;13.73;12.43;;;35.00;54.70;;;;;;6243825;22;20180;-90
2022/07/01 06:37:10;;;;;;;13.60;12.38;;;34.80;49.80;;;;;;6244135;22;20150;-93
2022/07/01 06:39:49;;;;;;;13.15;11.95;;;34.50;45.80;;;;;;6243937;23;20157;-93
2022/07/01 06:42:47;;;;;;;13.93;12.05;;;34.20;49.40;;;;;;6244008;23;20161;-93
2022/07/01 06:45:41;;;;;;;14.15;12.70;;;33.80;53.00;;;;;;6190241;23;20161;-91
2022/07/01 06:48:35;;;;;;;22.58;15.73;;;33.00;74.00;;;;;;6229668;23;20137;-92
2022/07/01 06:51:26;;;;;;;24.45;16.67;;;31.80;59.90;;;;;;6243675;22;20149;-90
2022/07/01 06:53:54;;;;;;;31.60;12.30;;;30.70;99.90;;;;;;6231356;22;20580;-92
2022/07/01 06:56:41;;;;;;;18.08;9.20;;;29.60;99.90;;;;;;6232310;23;20185;-92
2022/07/01 07:00:09;;;;;;;13.98;7.60;;;28.60;99.90;;;;;;6244345;23;20165;-93
2022/07/01 07:02:39;;;;;;;12.27;7.13;;;27.50;1.00;;;;;;6225797;22;20165;-95
2022/07/01 07:05:35;;;;;;;8.48;6.88;;;26.70;99.90;;;;;;6234081;22;20149;-90
2022/07/01 07:11:39;;;;;;;6.72;6.03;;;26.30;99.90;;;;;;6129117;22;20185;-94
2022/07/01 07:14:35;;;;;;;10.00;5.85;;;26.20;1.00;;;;;;6213771;23;20173;-92
2022/07/01 07:17:24;;;;;;;8.98;5.53;;;26.20;1.00;;;;;;6213845;23;20160;-90
2022/07/01 07:20:30;;;;;;;9.60;5.88;;;26.30;99.90;;;;;;6211889;23;20161;-93
2022/07/01 07:23:40;;;;;;;11.38;5.38;;;26.50;99.90;;;;;;6208159;23;20169;-90
2022/07/01 07:26:08;;;;;;;8.18;5.50;;;26.60;86.80;;;;;;6192565;23;20157;-91
2022/07/01 07:29:15;;;;;;;11.77;5.35;;;26.60;1.00;;;;;;6205703;23;20169;-91
2022/07/01 07:35:06;;;;;;;5.45;4.10;;;27.90;1.00;;;;;;6203320;23;20170;-93
2022/07/01 07:44:09;;;;;;;5.53;3.67;;;32.10;1.00;;;;;;6213692;23;20153;-92
2022/07/01 07:46:53;;;;;;;6.90;4.60;;;32.10;99.90;;;;;;6213421;23;20184;-93
2022/07/01 07:52:27;;;;;;;4.57;3.70;;;31.80;99.90;;;;;;6182093;23;20168;-92
2022/07/01 07:54:55;;;;;;;7.38;4.13;;;31.50;99.90;;;;;;6200928;23;20204;-92
2022/07/01 08:11:19;;;;;;;5.88;4.45;;;31.10;1.00;;;;;;5114239;27;20543;-90
2022/07/01 08:13:50;;;;;;;6.30;4.50;;;37.30;99.90;;;;;;5114606;28;20280;-90
2022/07/01 08:16:17;;;;;;;5.85;5.00;;;36.70;99.90;;;;;;5114517;28;20195;-91
2022/07/01 08:18:45;;;;;;;7.28;4.75;;;36.20;99.90;;;;;;5115333;27;20333;-95
2022/07/01 08:21:12;;;;;;;7.78;5.03;;;35.70;99.90;;;;;;5115018;28;20230;-90
2022/07/01 08:23:43;;;;;;;8.02;6.70;;;35.20;99.90;;;;;;5112641;28;20244;-92
2022/07/01 08:26:12;;;;;;;6.68;4.90;;;35.00;99.90;;;;;;5114670;28;20254;-90
2022/07/01 08:28:41;;;;;;;8.63;4.90;;;35.10;99.90;;;;;;5116517;28;20248;-93
2022/07/01 08:31:10;;;;;;;6.28;5.45;;;35.50;99.90;;;;;;5117021;28;20282;-90
2022/07/01 08:34:02;;;;;;;6.75;5.35;;;36.20;99.90;;;;;;5117534;28;20195;-91
2022/07/01 08:36:29;;;;;;;7.90;6.13;;;37.00;99.90;;;;;;5116658;28;20183;-90
2022/07/01 08:38:57;;;;;;;7.82;7.03;;;37.40;99.90;;;;;;5118570;28;20202;-90
2022/07/01 08:41:25;;;;;;;6.80;6.13;;;37.90;99.90;;;;;;5115986;28;20198;-92
2022/07/01 08:43:53;;;;;;;6.22;5.63;;;38.40;99.90;;;;;;5113204;28;20731;-90
2022/07/01 08:46:22;;;;;;;6.63;6.03;;;38.80;99.90;;;;;;5113889;28;20723;-88
2022/07/01 08:48:51;;;;;;;6.25;5.70;;;39.30;99.90;;;;;;5116003;28;20190;-92
2022/07/01 08:51:18;;;;;;;5.95;5.35;;;40.00;99.90;;;;;;5118472;27;20194;-93
2022/07/01 08:53:45;;;;;;;6.40;5.70;;;40.40;99.90;;;;;;5113544;28;20206;-89
2022/07/01 08:59:05;;;;;;;7.25;6.03;;;41.50;99.90;;;;;;5115370;28;20186;-89
2022/07/01 09:01:33;;;;;;;6.40;5.80;;;42.00;94.80;;;;;;5112249;28;20175;-91
2022/07/01 09:04:15;;;;;;;8.13;6.20;;;42.40;91.00;;;;;;5116972;28;20198;-92
2022/07/01 09:06:42;;;;;;;7.03;6.07;;;42.80;82.90;;;;;;5114982;28;20214;-89
2022/07/01 09:09:14;;;;;;;6.90;6.20;;;42.60;75.40;;;;;;5112593;28;20207;-94
2022/07/01 09:11:46;;;;;;;8.13;7.28;;;42.30;62.60;;;;;;5103740;28;20286;-90
2022/07/01 09:14:17;;;;;;;8.23;7.43;;;42.20;61.60;;;;;;5100522;28;20202;-91
2022/07/01 09:16:46;;;;;;;9.82;8.25;;;42.10;57.50;;;;;;5100516;28;20184;-90
2022/07/01 09:19:26;;;;;;;9.68;8.55;;;41.40;52.90;;;;;;5099370;28;20199;-94
2022/07/01 09:22:00;;;;;;;9.32;8.43;;;40.70;48.70;;;;;;5103162;28;20594;-91
2022/07/01 09:24:36;;;;;;;11.50;8.98;;;40.20;46.30;;;;;;5102284;28;20195;-92
2022/07/01 09:27:16;;;;;;;8.55;7.68;;;39.70;46.20;;;;;;5100315;28;20183;-90
2022/07/01 09:29:53;;;;;;;12.75;8.65;;;39.00;45.90;;;;;;5101229;28;20231;-96
2022/07/01 09:32:27;;;;;;;9.18;8.38;;;38.60;47.50;;;;;;5102311;28;20067;-93
2022/07/01 09:34:55;;;;;;;10.10;8.13;;;38.00;42.70;;;;;;5100404;28;20292;-90
2022/07/01 09:37:25;;;;;;;9.73;8.65;;;37.60;38.10;;;;;;5098506;28;20175;-92
2022/07/01 09:39:53;;;;;;;9.80;8.90;;;37.40;42.50;;;;;;5101588;28;20281;-87
2022/07/01 09:42:25;;;;;;;10.52;8.35;;;37.10;46.20;;;;;;5098309;28;20194;-91
2022/07/01 09:44:54;;;;;;;;;;;37.00;44.20;;;;;;5099866;28;20486;-87
2022/07/01 09:47:23;;;;;;;;;;;36.70;45.10;;;;;;5098421;28;20063;-88
2022/07/01 09:49:50;;;;;;;;;;;36.60;45.60;;;;;;5096572;28;20212;-88
2022/07/01 09:52:23;;;;;;;9.63;8.23;;;36.40;45.40;;;;;;5099106;28;20238;-90
2022/07/01 09:54:52;;;;;;;7.57;6.75;;;36.50;45.60;;;;;;5099013;28;20224;-92
2022/07/01 09:57:23;;;;;;;11.95;6.60;;;36.70;49.20;;;;;;5100814;28;20195;-94
2022/07/01 09:59:52;;;;;;;9.73;7.10;;;36.80;56.60;;;;;;5099173;28;20179;-90
2022/07/01 10:02:22;;;;;;;10.02;7.15;;;37.10;53.60;;;;;;5098787;28;20285;-90
2022/07/01 10:04:52;;;;;;;9.18;7.97;;;37.40;57.80;;;;;;5099649;28;20647;-90
2022/07/01 10:07:35;;;;;;;8.25;7.32;;;37.60;57.90;;;;;;5096135;28;20179;-93
2022/07/01 10:10:14;;;;;;;8.27;7.47;;;37.70;57.10;;;;;;5100561;28;20233;-92
2022/07/01 10:12:45;;;;;;;9.68;7.60;;;37.80;56.30;;;;;;5099318;28;20198;-90
2022/07/01 10:15:17;;;;;;;9.20;8.15;;;38.00;52.80;;;;;;5097718;28;20199;-92
2022/07/01 10:17:48;;;;;;;9.10;8.18;;;37.80;50.90;;;;;;5097654;28;20241;-90
2022/07/01 10:20:29;;;;;;;10.30;7.72;;;37.40;53.20;;;;;;5099299;28;20198;-91
2022/07/01 10:23:04;;;;;;;11.82;7.85;;;37.20;55.30;;;;;;5098173;28;20548;-92
2022/07/01 10:25:36;;;;;;;9.32;7.88;;;36.80;57.70;;;;;;5099327;28;20194;-92
2022/07/01 10:28:25;;;;;;;8.80;7.90;;;36.70;63.80;;;;;;5099230;28;20199;-89
2022/07/01 10:31:02;;;;;;;10.93;8.20;;;37.00;70.30;;;;;;5099786;28;20219;-88
2022/07/01 10:33:42;;;;;;;9.25;8.35;;;37.10;70.60;;;;;;5097398;28;20633;-94
2022/07/01 10:36:26;;;;;;;9.90;8.63;;;37.10;67.30;;;;;;5097930;28;20240;-92
2022/07/01 10:39:14;;;;;;;10.60;9.50;;;37.00;64.20;;;;;;5097436;28;20198;-90
2022/07/01 10:41:55;;;;;;;11.20;9.90;;;36.80;59.20;;;;;;5098632;28;20260;-90
2022/07/01 10:44:23;;;;;;;10.52;9.50;;;36.60;56.40;;;;;;5093908;28;20652;-87
2022/07/01 10:46:56;;;;;;;10.55;9.57;;;36.50;56.00;;;;;;5094167;28;20206;-88
2022/07/01 10:50:02;;;;;;;10.50;9.57;;;36.60;55.80;;;;;;5099132;28;20180;-93
2022/07/01 10:52:31;;;;;;;10.23;9.23;;;36.60;52.90;;;;;;5097616;28;20252;-91
2022/07/01 10:55:00;;;;;;;10.18;9.18;;;36.10;48.50;;;;;;5095755;28;20536;-89
2022/07/01 10:57:36;;;;;;;10.63;9.52;;;35.70;50.50;;;;;;5098908;28;20261;-92
2022/07/01 11:00:30;;;;;;;11.55;9.43;;;35.40;50.10;;;;;;5097134;28;20202;-87
2022/07/01 11:03:05;;;;;;;10.45;9.07;;;35.30;55.60;;;;;;5096209;28;20720;-88
2022/07/01 11:05:37;;;;;;;10.20;9.13;;;35.30;59.80;;;;;;5096262;28;20633;-88
2022/07/01 11:08:17;;;;;;;14.48;9.60;;;35.20;66.90;;;;;;5097080;28;20223;-88
2022/07/01 11:10:45;;;;;;;10.55;9.25;;;35.10;68.90;;;;;;5096623;28;20216;-90
2022/07/01 11:13:16;;;;;;;9.88;8.98;;;34.80;75.40;;;;;;5095120;28;20195;-87
2022/07/01 11:15:49;;;;;;;10.68;9.68;;;34.60;80.10;;;;;;5095657;28;20192;-92
2022/07/01 11:18:17;;;;;;;;;;;34.40;89.50;;;;;;5097300;28;20093;-92
2022/07/01 11:20:47;;;;;;;12.55;9.90;;;34.10;92.90;;;;;;5096466;28;20209;-94
2022/07/01 11:23:30;;;;;;;14.18;9.82;;;33.70;99.70;;;;;;5096140;28;20200;-92
2022/07/01 11:26:02;;;;;;;11.00;9.77;;;33.40;99.90;;;;;;5096575;28;20190;-93
2022/07/01 11:28:29;;;;;;;10.65;9.55;;;33.20;99.90;;;;;;5094659;28;20568;-87
2022/07/01 11:31:09;;;;;;;18.95;10.40;;;32.90;99.90;;;;;;5096727;28;20222;-93
2022/07/01 11:33:39;;;;;;;14.13;9.90;;;32.80;99.90;;;;;;5096676;28;20188;-90
2022/07/01 11:41:47;;;;;;;10.75;9.75;;;32.20;99.90;;;;;;5095327;28;20564;-93
2022/07/01 11:44:30;;;;;;;12.15;9.70;;;31.90;99.90;;;;;;5096990;28;20559;-91
2022/07/01 11:46:58;;;;;;;10.15;8.88;;;31.70;1.00;;;;;;5097372;28;20217;-92
2022/07/01 11:49:28;;;;;;;;;;;31.70;1.00;;;;;;5098209;28;20191;-91
2022/07/01 11:51:58;;;;;;;11.63;9.40;;;31.70;1.00;;;;;;5097048;28;20369;-89
2022/07/01 11:54:30;;;;;;;10.60;9.52;;;31.80;1.00;;;;;;5095842;28;20168;-91
2022/07/01 11:57:17;;;;;;;12.35;9.85;;;31.90;99.90;;;;;;5096144;28;20191;-92
2022/07/01 11:59:46;;;;;;;11.80;9.68;;;32.20;1.00;;;;;;5094147;28;20210;-95
2022/07/01 12:02:17;;;;;;;13.23;9.63;;;32.30;1.00;;;;;;5094395;28;20637;-91
2022/07/01 12:04:45;;;;;;;11.82;9.32;;;32.20;1.00;;;;;;5095883;28;20203;-87
2022/07/01 12:07:17;;;;;;;11.52;9.77;;;31.90;1.00;;;;;;5095830;28;20195;-88
2022/07/01 12:10:01;;;;;;;14.00;9.90;;;31.70;1.00;;;;;;5096750;28;20227;-90
2022/07/01 12:12:28;;;;;;;;;;;31.30;1.00;;;;;;5095150;28;20077;-88
2022/07/01 12:15:00;;;;;;;11.20;10.00;;;31.10;1.00;;;;;;5094730;28;20190;-91
2022/07/01 12:17:28;;;;;;;17.23;10.32;;;30.80;99.90;;;;;;5095226;28;20622;-89
2022/07/01 12:19:56;;;;;;;11.98;9.77;;;30.60;99.90;;;;;;5095388;28;20195;-87
2022/07/01 12:22:28;;;;;;;10.75;9.55;;;30.40;99.90;;;;;;5093769;28;20183;-91
2022/07/01 12:25:08;;;;;;;14.70;9.85;;;30.30;99.90;;;;;;5095330;28;20692;-90
2022/07/01 12:27:43;;;;;;;11.63;9.70;;;30.20;1.00;;;;;;5096620;28;20654;-89
2022/07/01 12:30:32;;;;;;;13.52;10.27;;;30.10;1.00;;;;;;5095628;28;20084;-92
2022/07/01 12:33:34;;;;;;;;;;;;;;;;;;;;;
2022/07/01 12:36:04;;;;;;;11.07;9.73;;;29.70;1.00;;;;;;5094440;28;20270;-88
2022/07/01 12:38:32;;;;;;;;;;;29.50;40.50;;;;;;5096638;28;20085;-89
2022/07/01 12:41:01;;;;;;;12.13;10.15;;;29.30;99.90;;;;;;5098468;28;20201;-90
2022/07/01 12:43:30;;;;;;;15.82;10.10;;;29.20;99.90;;;;;;5094757;28;20207;-88
2022/07/01 12:45:59;;;;;;;13.95;10.85;;;29.00;99.90;;;;;;5096573;28;20641;-91
2022/07/01 12:48:29;;;;;;;12.50;11.15;;;28.80;1.00;;;;;;5098397;28;20181;-90
2022/07/01 12:50:57;;;;;;;10.18;7.60;;;28.60;2.10;;;;;;5097730;28;20220;-91
2022/07/01 12:53:26;;;;;;;8.15;5.55;;;28.20;18.80;;;;;;5100054;28;20646;-90
2022/07/01 12:55:57;;;;;;;7.47;4.95;;;27.80;1.00;;;;;;5098233;28;20227;-92
2022/07/01 12:58:29;;;;;;;7.65;4.55;;;27.40;99.90;;;;;;5099251;28;20192;-91
2022/07/01 13:01:19;;;;;;;6.85;4.18;;;26.90;99.90;;;;;;5100551;28;20264;-91
2022/07/01 13:04:13;;;;;;;7.35;4.45;;;26.50;99.90;;;;;;5099834;28;20214;-94
2022/07/01 13:06:40;;;;;;;4.90;4.22;;;26.00;1.00;;;;;;5083288;28;20559;-90
2022/07/01 13:13:22;;;;;;;4.05;3.38;;;25.20;1.00;;;;;;4953859;28;20214;-93
2022/07/01 13:25:36;;;;;;;5.00;3.83;;;23.70;99.90;;;;;;4998797;28;20191;-93
2022/07/01 13:32:28;;;;;;;5.22;3.78;;;23.40;99.90;;;;;;4894294;29;20671;-94
2022/07/01 13:41:44;;;;;;;6.13;3.75;;;22.90;99.90;;;;;;4870473;28;20250;-92
2022/07/01 13:44:15;;;;;;;10.02;4.50;;;22.60;99.90;;;;;;5030301;28;20202;-91
2022/07/01 13:50:19;;;;;;;;;;;22.20;99.90;;;;;;5046908;28;19952;-91
2022/07/01 13:52:51;;;;;;;6.95;3.67;;;22.00;1.00;;;;;;5077135;28;20330;-91
2022/07/01 14:02:57;;;;;;;6.50;4.22;;;21.40;99.90;;;;;;4913720;29;20234;-92
2022/07/01 14:23:15;;;;;;;7.20;6.43;;;21.00;1.00;;;;;;4802595;29;20263;-94
2022/07/01 14:26:10;;;;;;;9.60;6.80;;;20.90;1.00;;;;;;4833360;29;20217;-94
2022/07/01 14:28:42;;;;;;;11.43;7.68;;;20.90;1.00;;;;;;4835507;29;20221;-93
2022/07/01 14:34:34;;;;;;;8.43;7.50;;;20.80;1.00;;;;;;4938253;29;20284;-93
2022/07/01 14:37:15;;;;;;;9.02;8.13;;;20.80;1.00;;;;;;4990776;28;20326;-93
2022/07/01 14:40:05;;;;;;;11.00;8.15;;;20.80;1.00;;;;;;5004991;28;20209;-93
2022/07/01 14:43:16;;;;;;;8.80;7.50;;;20.70;1.00;;;;;;5025447;28;20203;-92
2022/07/01 14:45:47;;;;;;;10.18;8.05;;;20.70;99.90;;;;;;4967031;29;20373;-93
2022/07/01 14:49:02;;;;;;;8.45;7.55;;;20.60;1.00;;;;;;4970339;28;20196;-94
2022/07/01 14:52:22;;;;;;;9.63;7.85;;;20.70;99.90;;;;;;4918789;29;20749;-91
2022/07/01 14:54:50;;;;;;;9.88;8.35;;;20.60;99.90;;;;;;4933737;28;20208;-91
2022/07/01 14:57:30;;;;;;;10.07;7.95;;;20.60;99.90;;;;;;5024339;28;20202;-93
2022/07/01 15:00:17;;;;;;;;;;;;;;;;;;;;;
2022/07/01 15:05:31;;;;;;;10.45;9.45;;;20.70;99.90;;;;;;5103501;28;20194;-89
2022/07/01 15:08:43;;;;;;;;;;;20.70;99.90;;;;;;5113012;28;19972;-95
2022/07/01 15:11:10;;;;;;;9.02;6.57;;;20.80;99.90;;;;;;5108883;28;20372;-91
2022/07/01 15:13:52;;;;;;;7.13;6.40;;;20.80;99.90;;;;;;5107701;28;20203;-94
2022/07/01 15:16:20;;;;;;;9.30;8.40;;;20.80;99.90;;;;;;5108163;28;20248;-91
2022/07/01 15:18:54;;;;;;;8.95;7.07;;;20.90;28.60;;;;;;5108150;28;20199;-91
2022/07/01 15:21:54;;;;;;;8.32;6.95;;;20.90;1.00;;;;;;5112058;28;20183;-90
2022/07/01 15:27:46;;;;;;;7.93;6.72;;;21.10;1.00;;;;;;5055042;28;20209;-94
2022/07/01 15:33:53;;;;;;;9.10;8.20;;;21.30;1.00;;;;;;5016276;28;20202;-93
2022/07/01 15:36:22;;;;;;;12.90;11.60;;;21.30;1.00;;;;;;5029774;28;20198;-93
2022/07/01 15:38:49;;;;;;;14.70;13.20;;;21.30;1.00;;;;;;5058289;28;20391;-95
2022/07/01 15:41:43;;;;;;;9.95;8.80;;;21.40;1.00;;;;;;5093508;28;20204;-90
2022/07/01 15:44:10;;;;;;;10.73;7.68;;;21.50;1.00;;;;;;5091441;28;20211;-92
2022/07/01 15:46:39;;;;;;;10.70;9.45;;;21.50;99.90;;;;;;5092622;28;20196;-94
2022/07/01 15:49:08;;;;;;;7.10;6.07;;;21.50;99.90;;;;;;5091301;28;20189;-93
2022/07/01 15:51:36;;;;;;;9.20;8.25;;;21.60;1.00;;;;;;5091640;28;20242;-91
2022/07/01 15:54:09;;;;;;;7.80;6.78;;;21.60;34.50;;;;;;5092995;28;20210;-91
2022/07/01 15:56:54;;;;;;;11.60;9.13;;;21.70;99.90;;;;;;5094901;28;20200;-94
2022/07/01 15:59:25;;;;;;;11.23;9.13;;;21.80;99.90;;;;;;5091377;28;20202;-92
2022/07/01 16:01:52;;;;;;;7.65;5.97;;;21.90;99.90;;;;;;5090346;28;20188;-89
2022/07/01 16:04:23;;;;;;;8.77;6.85;;;22.00;99.90;;;;;;5088989;28;20207;-93
2022/07/01 16:06:52;;;;;;;7.93;6.72;;;22.10;55.30;;;;;;5092612;28;20644;-93
2022/07/01 16:09:23;;;;;;;8.57;6.78;;;22.10;1.00;;;;;;5089405;28;20222;-94
2022/07/01 16:11:51;;;;;;;11.45;7.53;;;22.20;1.00;;;;;;5113581;28;20240;-89